Time;durP1;ratioP1;P1;durP2;ratioP2;P2;SDS_P1;SDS_P2;PMS_P1;PMS_P2;Temp;Humidity;BMP_temperature;BMP_pressure;BME280_temperature;BME280_humidity;BME280_pressure;Samples;Min_cycle;Max_cycle;Signal;HPM_P1;HPM_P2
2021/05/11 00:01:47;;;;;;;3.03;1.10;;;;;;;;;;5076452;28;20021;-65
2021/05/11 00:04:13;;;;;;;1.25;0.63;;;;;;;;;;5076836;28;20108;-65
2021/05/11 00:06:40;;;;;;;3.97;2.05;;;;;;;;;;5076396;28;20109;-65
2021/05/11 00:09:06;;;;;;;4.55;2.40;;;;;;;;;;5076192;28;20020;-66
2021/05/11 00:11:33;;;;;;;9.02;1.20;;;;;;;;;;5076734;28;20020;-65
2021/05/11 00:13:59;;;;;;;3.55;1.13;;;;;;;;;;5076396;28;20104;-67
2021/05/11 00:16:25;;;;;;;5.43;1.13;;;;;;;;;;5075751;28;20481;-68
2021/05/11 00:18:51;;;;;;;6.03;1.40;;;;;;;;;;5076598;28;20069;-66
2021/05/11 00:21:18;;;;;;;3.83;1.33;;;;;;;;;;5076525;28;20066;-67
2021/05/11 00:23:44;;;;;;;3.35;1.55;;;;;;;;;;5075609;28;20477;-67
2021/05/11 00:26:10;;;;;;;5.75;0.75;;;;;;;;;;5076570;28;20101;-67
2021/05/11 00:28:36;;;;;;;1.48;1.08;;;;;;;;;;5076091;28;20031;-67
2021/05/11 00:31:02;;;;;;;2.97;1.98;;;;;;;;;;5075781;28;20035;-67
2021/05/11 00:33:28;;;;;;;3.85;1.50;;;;;;;;;;5076085;28;20024;-67
2021/05/11 00:35:54;;;;;;;1.67;1.10;;;;;;;;;;5075847;28;20405;-65
2021/05/11 00:38:20;;;;;;;4.07;1.30;;;;;;;;;;5075620;28;20029;-65
2021/05/11 00:40:46;;;;;;;3.28;0.98;;;;;;;;;;5075978;28;20020;-65
2021/05/11 00:43:13;;;;;;;1.35;0.65;;;;;;;;;;5075847;28;20021;-65
2021/05/11 00:45:39;;;;;;;2.72;0.85;;;;;;;;;;5074309;28;20044;-65
2021/05/11 00:48:05;;;;;;;2.03;1.40;;;;;;;;;;5075720;28;20376;-65
2021/05/11 00:50:31;;;;;;;2.60;0.70;;;;;;;;;;5075377;28;20020;-65
2021/05/11 00:52:57;;;;;;;3.55;1.30;;;;;;;;;;5075674;28;20466;-65
2021/05/11 00:55:24;;;;;;;6.55;1.60;;;;;;;;;;5076148;28;20366;-65
2021/05/11 00:57:50;;;;;;;3.20;0.70;;;;;;;;;;5075527;28;20028;-65
2021/05/11 01:00:16;;;;;;;6.65;1.05;;;;;;;;;;5075392;28;20071;-64
2021/05/11 01:02:42;;;;;;;4.05;1.40;;;;;;;;;;5075228;28;20099;-65
2021/05/11 01:05:09;;;;;;;3.42;0.85;;;;;;;;;;5075703;28;20027;-64
2021/05/11 01:07:35;;;;;;;1.42;0.75;;;;;;;;;;5075323;28;20029;-64
2021/05/11 01:10:01;;;;;;;3.17;1.02;;;;;;;;;;5075355;28;20104;-64
2021/05/11 01:12:27;;;;;;;2.85;1.05;;;;;;;;;;5075364;28;20477;-64
2021/05/11 01:14:54;;;;;;;5.63;2.40;;;;;;;;;;5075216;28;20025;-64
2021/05/11 01:17:27;;;;;;;11.45;3.63;;;;;;;;;;5075464;28;20036;-64
2021/05/11 01:19:57;;;;;;;13.80;2.88;;;;;;;;;;5074979;28;20024;-65
2021/05/11 01:22:39;;;;;;;6.22;2.10;;;;;;;;;;5075058;28;20017;-65
2021/05/11 01:25:28;;;;;;;4.60;1.65;;;;;;;;;;5075186;28;20103;-65
2021/05/11 01:28:05;;;;;;;4.80;1.05;;;;;;;;;;5074982;28;20134;-64
2021/05/11 01:45:29;;;;;;;3.10;1.02;;;;;;;;;;5074397;28;20413;-64
2021/05/11 01:47:45;;;;;;;2.88;1.90;;;;;;;;;;5070882;28;20040;-65
2021/05/11 01:50:29;;;;;;;3.75;0.80;;;;;;;;;;5074571;28;20044;-65
2021/05/11 01:56:02;;;;;;;1.83;0.70;;;;;;;;;;5062929;28;20067;-63
2021/05/11 02:22:49;;;;;;;2.60;1.23;;;;;;;;;;5073480;28;20454;-66
2021/05/11 02:25:15;;;;;;;4.07;1.40;;;;;;;;;;5074387;28;20039;-66
2021/05/11 02:27:42;;;;;;;3.58;1.17;;;;;;;;;;5074240;28;20407;-65
2021/05/11 02:30:09;;;;;;;3.47;0.80;;;;;;;;;;5073660;28;20025;-66
2021/05/11 02:32:39;;;;;;;5.68;1.85;;;;;;;;;;5073947;28;20025;-66
2021/05/11 02:35:06;;;;;;;2.67;1.30;;;;;;;;;;5073920;28;20454;-66
2021/05/11 02:37:32;;;;;;;3.97;1.27;;;;;;;;;;5073888;28;20487;-66
2021/05/11 02:39:59;;;;;;;3.33;1.10;;;;;;;;;;5073822;28;20028;-66
2021/05/11 02:42:25;;;;;;;2.25;1.27;;;;;;;;;;5073752;28;20024;-67
2021/05/11 02:44:52;;;;;;;4.38;1.77;;;;;;;;;;5073736;28;20028;-66
2021/05/11 02:47:18;;;;;;;4.10;1.75;;;;;;;;;;5074678;28;20040;-66
2021/05/11 02:49:46;;;;;;;4.82;2.53;;;;;;;;;;5073421;28;20031;-66
2021/05/11 02:52:13;;;;;;;5.88;2.55;;;;;;;;;;5073720;28;20455;-65
2021/05/11 02:54:39;;;;;;;10.00;3.33;;;;;;;;;;5073929;28;20029;-65
2021/05/11 02:57:06;;;;;;;14.70;5.10;;;;;;;;;;5073065;28;20496;-66
2021/05/11 02:59:32;;;;;;;13.20;7.55;;;;;;;;;;5073641;28;20032;-66
2021/05/11 03:01:59;;;;;;;12.60;7.05;;;;;;;;;;5073982;28;20031;-67
2021/05/11 03:04:25;;;;;;;14.85;6.78;;;;;;;;;;5073157;28;20016;-66
2021/05/11 03:06:56;;;;;;;16.17;8.45;;;;;;;;;;5073611;28;20036;-67
2021/05/11 03:09:23;;;;;;;22.13;9.00;;;;;;;;;;5073584;28;20404;-67
2021/05/11 03:11:49;;;;;;;21.38;9.60;;;;;;;;;;5073349;28;20103;-67
2021/05/11 03:14:15;;;;;;;19.05;9.40;;;;;;;;;;5073459;28;20021;-67
2021/05/11 03:16:41;;;;;;;17.67;7.82;;;;;;;;;;5073607;28;20025;-68
2021/05/11 03:19:07;;;;;;;14.32;6.82;;;;;;;;;;5073178;28;20024;-67
2021/05/11 03:21:33;;;;;;;12.18;5.40;;;;;;;;;;5073402;28;20025;-68
2021/05/11 03:23:59;;;;;;;19.05;6.40;;;;;;;;;;5073541;28;20020;-68
2021/05/11 03:26:25;;;;;;;11.57;3.90;;;;;;;;;;5073051;28;20468;-67
2021/05/11 03:28:51;;;;;;;7.05;4.68;;;;;;;;;;5075085;28;20032;-67
2021/05/11 03:31:18;;;;;;;6.57;3.28;;;;;;;;;;5076920;28;20021;-65
2021/05/11 03:33:44;;;;;;;6.93;2.78;;;;;;;;;;5076743;28;20461;-65
2021/05/11 03:36:10;;;;;;;9.13;3.13;;;;;;;;;;5077058;28;20409;-66
2021/05/11 03:38:36;;;;;;;6.93;2.70;;;;;;;;;;5076048;28;20538;-67
2021/05/11 03:41:02;;;;;;;7.32;2.65;;;;;;;;;;5077025;28;20027;-66
2021/05/11 03:43:35;;;;;;;4.18;2.97;;;;;;;;;;5077230;28;20480;-66
2021/05/11 03:46:07;;;;;;;6.85;3.00;;;;;;;;;;5075932;28;20044;-65
2021/05/11 03:48:33;;;;;;;9.02;2.53;;;;;;;;;;5075621;28;20416;-64
2021/05/11 03:51:05;;;;;;;5.53;2.97;;;;;;;;;;5075419;28;20031;-64
2021/05/11 03:53:32;;;;;;;7.50;2.72;;;;;;;;;;5075302;28;20009;-66
2021/05/11 03:55:58;;;;;;;4.85;1.70;;;;;;;;;;5075379;28;20021;-68
2021/05/11 03:58:25;;;;;;;5.40;2.33;;;;;;;;;;5075745;28;20067;-65
2021/05/11 04:00:51;;;;;;;6.35;1.90;;;;;;;;;;5075370;28;20104;-65
2021/05/11 04:03:18;;;;;;;2.90;2.25;;;;;;;;;;5074783;28;20036;-66
2021/05/11 04:05:45;;;;;;;4.82;1.98;;;;;;;;;;5075133;28;20038;-66
2021/05/11 04:08:19;;;;;;;5.85;1.60;;;;;;;;;;5075016;28;20059;-65
2021/05/11 04:10:49;;;;;;;6.22;2.20;;;;;;;;;;5075372;28;20036;-65
2021/05/11 04:18:29;;;;;;;3.55;2.40;;;;;;;;;;5075765;28;20031;-65
2021/05/11 04:20:55;;;;;;;6.65;2.97;;;;;;;;;;5075654;28;20028;-65
2021/05/11 04:23:21;;;;;;;6.32;2.92;;;;;;;;;;5075741;28;20028;-62
2021/05/11 04:25:47;;;;;;;4.63;2.50;;;;;;;;;;5075919;28;20024;-63
2021/05/11 04:28:14;;;;;;;8.73;2.92;;;;;;;;;;5075687;28;20024;-63
2021/05/11 04:30:40;;;;;;;6.55;2.17;;;;;;;;;;5076167;28;20025;-64
2021/05/11 04:33:06;;;;;;;4.38;2.28;;;;;;;;;;5076303;28;20024;-62
2021/05/11 04:35:32;;;;;;;7.80;2.78;;;;;;;;;;5075719;28;20024;-63
2021/05/11 04:37:58;;;;;;;7.38;2.20;;;;;;;;;;5075705;28;20178;-63
2021/05/11 04:40:24;;;;;;;7.75;3.15;;;;;;;;;;5075583;28;20020;-64
2021/05/11 04:42:51;;;;;;;6.70;2.63;;;;;;;;;;5075336;28;20056;-64
2021/05/11 04:45:20;;;;;;;7.05;2.25;;;;;;;;;;5075421;28;20367;-64
2021/05/11 04:47:47;;;;;;;5.95;2.05;;;;;;;;;;5075758;28;20025;-65
2021/05/11 04:50:15;;;;;;;7.95;2.97;;;;;;;;;;5075447;28;20078;-64
2021/05/11 04:52:41;;;;;;;7.70;2.58;;;;;;;;;;5075715;28;20032;-64
2021/05/11 04:55:07;;;;;;;4.13;1.93;;;;;;;;;;5075356;28;20027;-64
2021/05/11 04:57:34;;;;;;;6.40;2.00;;;;;;;;;;5075625;28;20108;-63
2021/05/11 05:00:02;;;;;;;8.88;2.80;;;;;;;;;;5075551;28;20029;-64
2021/05/11 05:02:28;;;;;;;2.78;1.20;;;;;;;;;;5074903;28;20017;-64
2021/05/11 05:04:54;;;;;;;4.90;1.38;;;;;;;;;;5075415;28;20062;-64
2021/05/11 05:07:20;;;;;;;6.78;2.05;;;;;;;;;;5075660;28;20374;-64
2021/05/11 05:09:46;;;;;;;4.75;2.15;;;;;;;;;;5075005;28;20017;-64
2021/05/11 05:12:13;;;;;;;2.28;2.05;;;;;;;;;;5075290;28;20028;-64
2021/05/11 05:14:39;;;;;;;6.78;1.98;;;;;;;;;;5075026;28;20016;-64
2021/05/11 05:17:05;;;;;;;7.47;2.63;;;;;;;;;;5074967;28;20028;-64
2021/05/11 05:19:31;;;;;;;7.43;1.83;;;;;;;;;;5075141;28;20020;-64
2021/05/11 05:21:57;;;;;;;4.85;2.75;;;;;;;;;;5075125;28;20021;-64
2021/05/11 05:24:29;;;;;;;12.40;3.03;;;;;;;;;;5074736;28;20049;-64
2021/05/11 05:26:59;;;;;;;7.93;1.63;;;;;;;;;;5075374;28;20119;-64
2021/05/11 05:29:25;;;;;;;8.10;1.80;;;;;;;;;;5075254;28;20017;-65
2021/05/11 05:31:51;;;;;;;2.63;1.42;;;;;;;;;;5074671;28;20054;-63
2021/05/11 05:34:18;;;;;;;4.35;2.15;;;;;;;;;;5074551;28;20465;-66
2021/05/11 05:36:44;;;;;;;5.63;1.73;;;;;;;;;;5074966;28;20024;-66
2021/05/11 05:39:10;;;;;;;7.93;2.45;;;;;;;;;;5074449;28;20052;-67
2021/05/11 05:41:36;;;;;;;12.30;2.58;;;;;;;;;;5074582;28;20496;-65
2021/05/11 05:44:03;;;;;;;16.27;2.50;;;;;;;;;;5074700;28;20025;-66
2021/05/11 05:46:29;;;;;;;7.45;2.22;;;;;;;;;;5073884;28;20048;-65
2021/05/11 05:48:55;;;;;;;18.00;2.58;;;;;;;;;;5074568;28;20020;-66
2021/05/11 05:51:22;;;;;;;9.38;3.17;;;;;;;;;;5073230;28;20468;-64
2021/05/11 05:53:48;;;;;;;8.18;2.88;;;;;;;;;;5074363;28;20028;-64
2021/05/11 05:56:15;;;;;;;15.10;4.00;;;;;;;;;;5074082;28;20486;-61
2021/05/11 05:58:41;;;;;;;7.03;1.92;;;;;;;;;;5074072;28;20029;-63
2021/05/11 06:01:09;;;;;;;8.05;2.85;;;;;;;;;;5074378;28;20021;-63
2021/05/11 06:06:05;;;;;;;13.90;1.95;;;;;;;;;;5073930;28;20051;-64
2021/05/11 06:08:31;;;;;;;6.90;2.90;;;;;;;;;;5073967;28;20017;-64
2021/05/11 06:11:12;;;;;;;17.43;2.93;;;;;;;;;;5074226;28;20461;-64
2021/05/11 06:13:53;;;;;;;6.90;2.33;;;;;;;;;;5073999;28;20242;-64
2021/05/11 06:19:04;;;;;;;8.35;1.60;;;;;;;;;;5073963;28;20111;-65
2021/05/11 06:21:30;;;;;;;5.47;0.90;;;;;;;;;;5073744;28;20405;-64
2021/05/11 06:23:56;;;;;;;3.10;0.77;;;;;;;;;;5073581;28;20382;-64
2021/05/11 06:26:22;;;;;;;3.55;1.88;;;;;;;;;;5073629;28;20112;-64
2021/05/11 06:28:49;;;;;;;3.45;0.82;;;;;;;;;;5073924;28;20027;-64
2021/05/11 06:31:15;;;;;;;2.55;0.32;;;;;;;;;;5073800;28;20462;-64
2021/05/11 06:33:41;;;;;;;4.40;0.52;;;;;;;;;;5073536;28;20381;-64
2021/05/11 06:36:07;;;;;;;6.32;0.43;;;;;;;;;;5073815;28;20530;-64
2021/05/11 06:38:33;;;;;;;5.65;1.05;;;;;;;;;;5073912;28;20020;-63
2021/05/11 06:41:01;;;;;;;5.90;1.20;;;;;;;;;;5072191;28;20373;-64
2021/05/11 06:43:29;;;;;;;2.08;0.80;;;;;;;;;;5074103;28;20028;-63
2021/05/11 06:46:21;;;;;;;3.40;0.60;;;;;;;;;;5073720;28;20044;-63
2021/05/11 06:53:40;;;;;;;1.60;0.95;;;;;;;;;;5073677;28;20021;-63
2021/05/11 06:56:09;;;;;;;3.90;0.60;;;;;;;;;;5073153;28;20035;-63
2021/05/11 06:58:35;;;;;;;1.45;0.75;;;;;;;;;;5073665;28;20028;-63
2021/05/11 07:01:01;;;;;;;2.70;0.30;;;;;;;;;;5073632;28;20086;-63
2021/05/11 07:03:27;;;;;;;5.18;0.50;;;;;;;;;;5075883;28;20385;-63
2021/05/11 07:05:54;;;;;;;1.60;0.45;;;;;;;;;;5078149;28;20036;-63
2021/05/11 07:10:59;;;;;;;4.75;0.82;;;;;;;;;;5077661;28;20058;-63
2021/05/11 07:13:25;;;;;;;3.45;0.63;;;;;;;;;;5078245;28;20032;-63
2021/05/11 07:15:51;;;;;;;4.20;0.38;;;;;;;;;;5076898;28;20031;-63
2021/05/11 07:18:18;;;;;;;2.58;0.60;;;;;;;;;;5077459;28;20028;-63
2021/05/11 07:20:46;;;;;;;0.63;0.30;;;;;;;;;;5077465;28;20051;-63
2021/05/11 07:23:16;;;;;;;;;;;;;;;;;;5077624;28;20021;-64
2021/05/11 07:26:27;;;;;;;5.97;0.70;;;;;;;;;;5077325;28;19904;-63
2021/05/11 07:31:06;;;;;;;2.00;0.65;;;;;;;;;;5077008;28;20063;-63
2021/05/11 07:33:39;;;;;;;4.60;0.55;;;;;;;;;;5077392;28;20021;-63
2021/05/11 07:36:06;;;;;;;3.30;0.45;;;;;;;;;;5077122;28;20028;-63
2021/05/11 07:38:32;;;;;;;4.57;0.40;;;;;;;;;;5077354;28;20034;-63
2021/05/11 07:40:58;;;;;;;3.43;0.40;;;;;;;;;;5077425;28;20029;-63
2021/05/11 07:43:26;;;;;;;5.47;1.13;;;;;;;;;;5076948;28;20025;-63
2021/05/11 08:05:17;;;;;;;9.48;1.80;;;;;;;;;;5076013;28;20029;-64
2021/05/11 08:10:34;;;;;;;1.67;0.60;;;;;;;;;;5076335;28;19928;-64
2021/05/11 08:15:56;;;;;;;1.50;0.65;;;;;;;;;;5075746;28;20031;-64
2021/05/11 08:29:18;;;;;;;5.63;0.60;;;;;;;;;;5076190;28;20070;-63
2021/05/11 08:31:44;;;;;;;1.42;0.85;;;;;;;;;;5076241;28;20074;-64
2021/05/11 08:34:11;;;;;;;3.33;0.30;;;;;;;;;;5075758;28;20052;-64
2021/05/11 08:36:37;;;;;;;6.43;1.20;;;;;;;;;;5076085;28;20035;-64
2021/05/11 08:39:04;;;;;;;5.90;2.15;;;;;;;;;;5075628;28;20481;-64
2021/05/11 08:41:30;;;;;;;8.18;1.08;;;;;;;;;;5076520;28;20466;-65
2021/05/11 08:43:56;;;;;;;4.47;0.70;;;;;;;;;;5076098;28;20039;-64
2021/05/11 08:46:22;;;;;;;6.82;1.02;;;;;;;;;;5075327;28;20141;-64
2021/05/11 08:48:50;;;;;;;4.35;0.50;;;;;;;;;;5075769;28;20453;-64
2021/05/11 08:51:27;;;;;;;5.50;0.93;;;;;;;;;;5075689;28;20052;-64
2021/05/11 09:27:01;;;;;;;6.47;1.30;;;;;;;;;;5073614;28;20043;-64
2021/05/11 09:56:57;;;;;;;3.17;1.25;;;;;;;;;;5074748;28;20569;-64
2021/05/11 10:47:00;;;;;;;2.00;0.50;;;;;;;;;;5073250;28;20059;-61
2021/05/11 10:49:27;;;;;;;3.72;0.88;;;;;;;;;;5073143;28;20040;-67
2021/05/11 10:52:24;;;;;;;3.03;0.68;;;;;;;;;;5074050;28;20024;-70
2021/05/11 10:54:58;;;;;;;5.88;1.05;;;;;;;;;;5061317;28;20055;-70
2021/05/11 10:57:31;;;;;;;2.58;0.63;;;;;;;;;;5073453;28;20021;-71
2021/05/11 11:00:14;;;;;;;4.32;0.77;;;;;;;;;;5073312;28;20369;-69
2021/05/11 11:02:46;;;;;;;8.55;1.08;;;;;;;;;;5072650;28;20178;-70
2021/05/11 11:05:33;;;;;;;4.57;1.73;;;;;;;;;;5073892;28;20096;-70
2021/05/11 11:07:59;;;;;;;3.92;0.75;;;;;;;;;;5073098;28;20478;-70
2021/05/11 11:10:28;;;;;;;1.30;1.05;;;;;;;;;;5071948;28;20473;-71
2021/05/11 11:12:55;;;;;;;5.72;0.70;;;;;;;;;;5073723;28;20020;-70
2021/05/11 11:15:21;;;;;;;1.88;1.17;;;;;;;;;;5073208;28;20095;-70
2021/05/11 11:17:50;;;;;;;4.63;0.47;;;;;;;;;;5073180;28;20028;-69
2021/05/11 11:20:17;;;;;;;1.08;0.75;;;;;;;;;;5071852;28;20021;-70
2021/05/11 11:25:41;;;;;;;5.45;0.60;;;;;;;;;;5073098;28;20067;-69
2021/05/11 11:28:07;;;;;;;5.07;0.77;;;;;;;;;;5073230;28;20481;-70
2021/05/11 11:30:33;;;;;;;0.57;0.50;;;;;;;;;;5072863;28;20442;-69
2021/05/11 11:33:03;;;;;;;3.03;0.80;;;;;;;;;;5072707;28;20454;-70
2021/05/11 11:35:32;;;;;;;3.90;1.95;;;;;;;;;;5072977;28;20028;-68
2021/05/11 11:37:58;;;;;;;4.18;1.15;;;;;;;;;;5071677;28;20447;-70
2021/05/11 11:40:25;;;;;;;6.20;2.08;;;;;;;;;;5071916;28;20020;-71
2021/05/11 11:42:52;;;;;;;4.43;0.75;;;;;;;;;;5072940;28;20032;-69
2021/05/11 11:45:21;;;;;;;4.97;1.33;;;;;;;;;;5072969;28;20048;-70
2021/05/11 11:47:54;;;;;;;4.88;1.00;;;;;;;;;;5072423;28;20036;-69
2021/05/11 11:50:20;;;;;;;6.68;1.02;;;;;;;;;;5075582;28;20025;-70
2021/05/11 11:55:52;;;;;;;5.38;0.85;;;;;;;;;;5076799;28;20074;-70
2021/05/11 11:58:11;;;;;;;13.15;1.33;;;;;;;;;;5076148;28;20040;-71
2021/05/11 12:00:37;;;;;;;5.50;0.80;;;;;;;;;;5076143;28;20483;-69
2021/05/11 12:03:12;;;;;;;2.97;1.33;;;;;;;;;;5076684;28;20033;-70
2021/05/11 12:05:39;;;;;;;6.25;0.82;;;;;;;;;;5076506;28;20017;-69
2021/05/11 12:10:47;;;;;;;7.45;1.23;;;;;;;;;;5076208;28;20036;-69
2021/05/11 12:13:14;;;;;;;4.40;1.25;;;;;;;;;;5076049;28;20017;-70
2021/05/11 12:15:41;;;;;;;4.28;1.25;;;;;;;;;;5076840;28;20020;-69
2021/05/11 12:18:19;;;;;;;2.50;0.95;;;;;;;;;;5076372;28;20358;-70
2021/05/11 12:20:46;;;;;;;3.65;1.08;;;;;;;;;;5074499;28;20025;-69
2021/05/11 12:23:16;;;;;;;2.55;1.08;;;;;;;;;;5075970;28;20448;-69
2021/05/11 12:25:44;;;;;;;4.32;0.50;;;;;;;;;;5076301;28;20021;-69
2021/05/11 12:28:10;;;;;;;3.20;0.50;;;;;;;;;;5074519;28;20030;-70
2021/05/11 12:30:41;;;;;;;6.90;1.08;;;;;;;;;;5076682;28;20035;-69
2021/05/11 12:33:12;;;;;;;6.63;1.55;;;;;;;;;;5074839;28;20090;-69
2021/05/11 12:35:42;;;;;;;2.75;0.77;;;;;;;;;;5075790;28;20092;-68
2021/05/11 12:38:26;;;;;;;9.73;1.48;;;;;;;;;;5074522;28;20385;-69
2021/05/11 12:43:52;;;;;;;5.50;1.27;;;;;;;;;;5052503;28;20111;-69
2021/05/11 12:46:22;;;;;;;16.73;1.52;;;;;;;;;;5074021;28;20094;-71
2021/05/11 12:48:54;;;;;;;2.22;1.02;;;;;;;;;;5075687;28;20070;-70
2021/05/11 12:51:47;;;;;;;3.97;0.80;;;;;;;;;;5074394;28;20070;-69
2021/05/11 12:54:38;;;;;;;8.98;1.33;;;;;;;;;;5071783;28;20052;-69
2021/05/11 12:57:11;;;;;;;3.40;0.70;;;;;;;;;;5075780;28;20520;-69
2021/05/11 12:59:47;;;;;;;4.00;0.80;;;;;;;;;;5073636;28;20536;-70
2021/05/11 13:25:59;;;;;;;4.50;1.70;;;;;;;;;;5073784;28;20347;-71
2021/05/11 13:34:00;;;;;;;7.00;1.30;;;;;;;;;;5074341;28;20457;-68
2021/05/11 13:36:26;;;;;;;17.02;1.92;;;;;;;;;;5073001;28;20024;-68
2021/05/11 13:38:52;;;;;;;11.07;1.10;;;;;;;;;;5072942;28;20082;-67
2021/05/11 13:41:18;;;;;;;6.43;1.35;;;;;;;;;;5073664;28;20359;-68
2021/05/11 13:43:45;;;;;;;5.32;1.85;;;;;;;;;;5073370;28;20063;-69
2021/05/11 13:46:11;;;;;;;4.82;1.90;;;;;;;;;;5072383;28;20056;-68
2021/05/11 13:48:39;;;;;;;5.68;0.55;;;;;;;;;;5072166;28;20028;-70
2021/05/11 13:51:18;;;;;;;16.45;1.92;;;;;;;;;;5072786;28;20075;-69
2021/05/11 13:53:46;;;;;;;9.48;1.17;;;;;;;;;;5072025;28;20016;-69
2021/05/11 14:01:53;;;;;;;5.63;0.95;;;;;;;;;;5052620;28;20132;-70
2021/05/11 14:04:20;;;;;;;6.57;1.60;;;;;;;;;;5053446;28;20017;-69
2021/05/11 14:06:46;;;;;;;3.83;1.13;;;;;;;;;;5053416;28;20032;-70
2021/05/11 14:09:12;;;;;;;2.72;0.77;;;;;;;;;;5053230;28;20032;-69
2021/05/11 14:11:40;;;;;;;9.98;1.50;;;;;;;;;;5051646;28;20052;-70
2021/05/11 14:14:07;;;;;;;5.97;1.42;;;;;;;;;;5053573;28;20048;-69
2021/05/11 14:16:33;;;;;;;6.53;1.55;;;;;;;;;;5051463;28;20124;-66
2021/05/11 14:18:59;;;;;;;4.10;1.00;;;;;;;;;;5053507;28;20040;-68
2021/05/11 14:21:25;;;;;;;6.35;1.65;;;;;;;;;;5053292;28;20029;-67
2021/05/11 14:23:53;;;;;;;8.43;1.85;;;;;;;;;;5051351;28;20390;-66
2021/05/11 14:26:28;;;;;;;6.03;1.38;;;;;;;;;;5052474;28;20060;-65
2021/05/11 14:28:56;;;;;;;8.45;2.55;;;;;;;;;;5051552;28;20044;-67
2021/05/11 14:31:23;;;;;;;5.25;1.60;;;;;;;;;;5051719;28;20060;-67
2021/05/11 14:33:49;;;;;;;10.48;2.75;;;;;;;;;;5052629;28;20465;-66
2021/05/11 14:36:15;;;;;;;5.78;1.33;;;;;;;;;;5053101;28;20029;-66
2021/05/11 14:38:41;;;;;;;5.70;1.33;;;;;;;;;;5052022;28;20033;-67
2021/05/11 14:41:08;;;;;;;5.22;1.35;;;;;;;;;;5051585;28;20040;-64
2021/05/11 14:43:34;;;;;;;3.33;1.05;;;;;;;;;;5052358;28;20021;-68
2021/05/11 14:46:02;;;;;;;7.18;1.67;;;;;;;;;;5050959;28;20045;-69
2021/05/11 14:48:30;;;;;;;8.23;1.73;;;;;;;;;;5052411;28;20021;-68
2021/05/11 14:50:56;;;;;;;12.32;2.30;;;;;;;;;;5053108;28;20347;-69
2021/05/11 14:53:22;;;;;;;18.48;2.10;;;;;;;;;;5050912;28;20029;-68
2021/05/11 14:55:48;;;;;;;8.73;1.38;;;;;;;;;;5052401;28;20075;-67
2021/05/11 14:58:15;;;;;;;5.03;1.42;;;;;;;;;;5053008;28;20024;-68
2021/05/11 15:00:41;;;;;;;4.25;1.52;;;;;;;;;;5071483;28;20026;-69
2021/05/11 15:03:10;;;;;;;4.03;1.52;;;;;;;;;;5072389;28;20435;-70
2021/05/11 15:05:37;;;;;;;14.65;1.92;;;;;;;;;;5073228;28;20545;-69
2021/05/11 15:08:03;;;;;;;10.52;1.70;;;;;;;;;;5071088;28;20031;-69
2021/05/11 15:10:29;;;;;;;5.55;2.13;;;;;;;;;;5072722;28;20024;-70
2021/05/11 15:12:55;;;;;;;7.57;2.17;;;;;;;;;;5072794;28;20032;-67
2021/05/11 15:15:22;;;;;;;7.18;1.17;;;;;;;;;;5071862;28;20492;-67
2021/05/11 15:20:15;;;;;;;9.27;2.90;;;;;;;;;;5072865;28;20025;-66
2021/05/11 15:22:42;;;;;;;4.57;2.13;;;;;;;;;;5069797;28;20024;-69
2021/05/11 15:25:09;;;;;;;8.27;2.17;;;;;;;;;;5075543;28;20048;-68
2021/05/11 15:27:35;;;;;;;9.60;2.65;;;;;;;;;;5076799;28;20100;-66
2021/05/11 15:30:01;;;;;;;4.68;1.40;;;;;;;;;;5076426;28;20028;-66
2021/05/11 15:32:39;;;;;;;8.77;1.33;;;;;;;;;;5076413;28;20027;-66
2021/05/11 15:35:07;;;;;;;4.80;1.48;;;;;;;;;;5073002;28;20021;-66
2021/05/11 15:37:33;;;;;;;4.75;1.13;;;;;;;;;;5076226;28;20067;-69
2021/05/11 15:40:00;;;;;;;10.65;1.85;;;;;;;;;;5076376;28;20425;-67
2021/05/11 15:42:26;;;;;;;5.50;1.52;;;;;;;;;;5076511;28;20048;-68
2021/05/11 15:44:52;;;;;;;3.15;1.00;;;;;;;;;;5075942;28;20099;-68
2021/05/11 15:47:19;;;;;;;4.22;1.95;;;;;;;;;;5076308;28;20041;-67
2021/05/11 15:49:46;;;;;;;3.83;1.95;;;;;;;;;;5076137;28;20021;-66
2021/05/11 15:52:12;;;;;;;3.50;1.50;;;;;;;;;;5075071;28;20053;-68
2021/05/11 15:54:38;;;;;;;10.23;2.00;;;;;;;;;;5076234;28;20020;-66
2021/05/11 15:57:05;;;;;;;6.35;2.05;;;;;;;;;;5074598;28;20020;-68
2021/05/11 15:59:31;;;;;;;7.43;6.68;;;;;;;;;;5075896;28;20055;-69
2021/05/11 16:01:57;;;;;;;11.45;4.93;;;;;;;;;;5076141;28;20043;-67
2021/05/11 16:04:23;;;;;;;6.70;4.03;;;;;;;;;;5074624;28;20381;-69
2021/05/11 16:06:49;;;;;;;6.28;1.33;;;;;;;;;;5076103;28;20060;-69
2021/05/11 16:09:16;;;;;;;6.85;2.55;;;;;;;;;;5075999;28;20118;-69
2021/05/11 16:11:43;;;;;;;4.35;1.33;;;;;;;;;;5073324;28;20025;-70
2021/05/11 16:14:09;;;;;;;5.03;0.93;;;;;;;;;;5074782;28;20031;-69
2021/05/11 16:16:35;;;;;;;10.10;1.52;;;;;;;;;;5074611;28;20354;-69
2021/05/11 16:19:04;;;;;;;8.60;1.17;;;;;;;;;;5074651;28;20082;-70
2021/05/11 16:21:33;;;;;;;7.95;2.50;;;;;;;;;;5074729;28;20020;-71
2021/05/11 16:23:59;;;;;;;13.68;5.43;;;;;;;;;;5074683;28;20017;-69
2021/05/11 16:26:26;;;;;;;12.63;5.63;;;;;;;;;;5074802;28;20063;-70
2021/05/11 16:29:03;;;;;;;9.25;3.88;;;;;;;;;;5075891;28;20384;-69
2021/05/11 16:31:32;;;;;;;5.75;2.42;;;;;;;;;;5075835;28;20519;-71
2021/05/11 16:33:59;;;;;;;5.68;1.48;;;;;;;;;;5074603;28;20024;-72
2021/05/11 16:36:25;;;;;;;4.32;1.35;;;;;;;;;;5074222;28;20040;-70
2021/05/11 16:38:52;;;;;;;5.75;1.10;;;;;;;;;;5075924;28;20031;-69
2021/05/11 16:41:18;;;;;;;;;;;;;;;;;;5076448;28;20416;-69
2021/05/11 16:43:44;;;;;;;3.33;1.30;;;;;;;;;;5074655;28;20356;-71
2021/05/11 16:46:10;;;;;;;5.05;2.42;;;;;;;;;;5075296;28;20489;-64
2021/05/11 16:48:36;;;;;;;4.50;1.87;;;;;;;;;;5075539;28;20074;-70
2021/05/11 16:51:03;;;;;;;9.50;1.13;;;;;;;;;;5076059;28;20281;-69
2021/05/11 16:53:29;;;;;;;;;;;;;;;;;;5074578;28;20078;-70
2021/05/11 16:55:55;;;;;;;7.22;1.48;;;;;;;;;;5073760;28;20269;-70
2021/05/11 16:58:21;;;;;;;7.60;2.00;;;;;;;;;;5073991;28;20476;-70
2021/05/11 17:00:49;;;;;;;9.40;1.30;;;;;;;;;;5073720;28;20033;-69
2021/05/11 17:03:15;;;;;;;1.80;1.17;;;;;;;;;;5075321;28;20256;-74
2021/05/11 17:05:42;;;;;;;10.23;1.40;;;;;;;;;;5075406;28;20031;-73
2021/05/11 17:08:11;;;;;;;3.25;1.63;;;;;;;;;;5074087;28;20119;-76
2021/05/11 17:10:37;;;;;;;8.13;2.00;;;;;;;;;;5075357;28;20342;-70
2021/05/11 17:13:04;;;;;;;8.23;1.88;;;;;;;;;;5075464;28;20027;-68
2021/05/11 17:15:31;;;;;;;2.60;1.27;;;;;;;;;;5073689;28;20024;-69
2021/05/11 17:17:57;;;;;;;6.68;1.52;;;;;;;;;;5075595;28;20408;-74
2021/05/11 17:20:25;;;;;;;4.32;1.25;;;;;;;;;;5075268;28;20545;-77
2021/05/11 17:22:51;;;;;;;1.80;0.60;;;;;;;;;;5074577;28;20031;-74
2021/05/11 17:25:18;;;;;;;5.05;1.67;;;;;;;;;;5073876;28;20016;-73
2021/05/11 17:27:45;;;;;;;5.05;2.50;;;;;;;;;;5074794;28;20017;-72
2021/05/11 17:30:11;;;;;;;4.03;1.40;;;;;;;;;;5073562;28;20115;-71
2021/05/11 17:32:38;;;;;;;5.75;1.80;;;;;;;;;;5073546;28;20021;-69
2021/05/11 17:35:04;;;;;;;3.97;1.33;;;;;;;;;;5072118;28;20401;-68
2021/05/11 17:37:31;;;;;;;6.40;1.80;;;;;;;;;;5074746;28;20043;-69
2021/05/11 17:39:57;;;;;;;5.10;2.17;;;;;;;;;;5073271;28;20098;-69
2021/05/11 17:42:23;;;;;;;5.50;1.70;;;;;;;;;;5073418;28;20469;-68
2021/05/11 17:44:49;;;;;;;4.43;2.03;;;;;;;;;;5073272;28;20029;-69
2021/05/11 17:47:16;;;;;;;2.13;1.37;;;;;;;;;;5073058;28;20359;-69
2021/05/11 17:49:42;;;;;;;4.85;1.15;;;;;;;;;;5074354;28;20374;-69
2021/05/11 17:52:08;;;;;;;7.32;1.35;;;;;;;;;;5074555;28;20031;-71
2021/05/11 17:54:35;;;;;;;5.78;1.83;;;;;;;;;;5074508;28;20029;-67
2021/05/11 17:57:01;;;;;;;5.72;1.77;;;;;;;;;;5074374;28;20028;-67
2021/05/11 17:59:27;;;;;;;10.90;2.40;;;;;;;;;;5073433;28;20052;-68
2021/05/11 18:01:53;;;;;;;10.67;3.03;;;;;;;;;;5074380;28;20025;-69
2021/05/11 18:04:19;;;;;;;4.87;1.33;;;;;;;;;;5074069;28;20052;-67
2021/05/11 18:06:47;;;;;;;14.13;2.43;;;;;;;;;;5072948;28;20552;-68
2021/05/11 18:09:15;;;;;;;6.43;2.10;;;;;;;;;;5070502;28;20036;-69
2021/05/11 18:11:41;;;;;;;10.63;2.85;;;;;;;;;;5075913;28;20104;-69
2021/05/11 18:14:07;;;;;;;8.63;2.95;;;;;;;;;;5076808;28;20021;-68
2021/05/11 18:16:33;;;;;;;8.00;3.87;;;;;;;;;;5074444;28;20031;-65
2021/05/11 18:19:02;;;;;;;14.53;3.27;;;;;;;;;;5074059;28;20025;-69
2021/05/11 18:21:28;;;;;;;11.57;3.38;;;;;;;;;;5071739;28;20024;-69
2021/05/11 18:23:54;;;;;;;14.27;2.87;;;;;;;;;;5073497;28;20028;-69
2021/05/11 18:26:21;;;;;;;6.60;3.10;;;;;;;;;;5072135;28;20465;-69
2021/05/11 18:28:47;;;;;;;9.17;2.90;;;;;;;;;;5072237;28;20348;-70
2021/05/11 18:31:13;;;;;;;8.53;2.53;;;;;;;;;;5072818;28;20054;-70
2021/05/11 18:33:39;;;;;;;8.20;2.55;;;;;;;;;;5074803;28;20457;-69
2021/05/11 18:36:17;;;;;;;10.63;3.92;;;;;;;;;;5072430;28;20020;-67
2021/05/11 18:38:47;;;;;;;15.32;4.78;;;;;;;;;;5072877;28;20022;-70
2021/05/11 18:41:14;;;;;;;11.77;3.13;;;;;;;;;;5073809;28;20020;-71
2021/05/11 18:43:40;;;;;;;9.30;3.85;;;;;;;;;;5070654;28;20058;-72
2021/05/11 18:46:06;;;;;;;10.23;3.63;;;;;;;;;;5072240;28;20052;-70
2021/05/11 18:48:32;;;;;;;13.73;4.68;;;;;;;;;;5070564;28;20314;-69
2021/05/11 18:50:58;;;;;;;15.13;4.32;;;;;;;;;;5071368;28;20526;-65
2021/05/11 18:53:24;;;;;;;12.27;4.10;;;;;;;;;;5072636;28;20028;-70
2021/05/11 18:55:51;;;;;;;17.77;7.00;;;;;;;;;;5070755;28;20027;-70
2021/05/11 18:58:17;;;;;;;13.77;5.93;;;;;;;;;;5071606;28;20056;-69
2021/05/11 19:00:43;;;;;;;17.53;8.57;;;;;;;;;;5070918;28;20544;-70